Aeroporto :
LOGIN :

Iscrizione | Disclaimer

   EN    FR    IT 

 










Sommario :    VFR   VFR Marginale   IFR   IFR Intensivo   IFR Molto Intensivo
Visibilità : 
Base nubi : 
>= 8 km
>= 3000ft
5 / 8 km
1000 / 3000 ft
1500m / 5 km
500 / 1000 ft
800 / 1500m
200 / 500 ft
< 800m
< 200 ft
Simboli :   Temporali  Nebbia  Neve Forte  Precipitazioni Forti  Vento > 20 kt
SIGMETs :   Varie  Temporali  Ghiacco  Turbolenza  Onda orograficha  Ceneri Vulcaniche






- Altitudine del aeroporto : 681 ft
- Codice IATA : LBA


EGNM - Leeds Bradford

ULTIMO METAR :
  • 121820Z 30014KT 9999 FEW018 SCT029 06/03 Q0996

METARs OBSOLETI :
  • 121750Z 31015KT 9999 SCT019 SCT032 06/04 Q0995
  • 121720Z 30015KT 9999 SCT019 SCT032 06/04 Q0995
  • 121650Z 30013KT 9999 SCT022 SCT033 06/04 Q0994
  • 121620Z 31016KT 9999 SCT020 SCT029 07/04 Q0994
  • 121550Z 30016KT 9999 FEW015 SCT025 07/04 Q0993

TAF TAF EGNM
Valido dal 12 a 18 ore il 13 a 18 ore UTC


121704Z 1218/1318 32015KT 9999 SCT030
PROB30
TEMPO 1304/1313 7000
BECMG 1306/1309 24005KT
ATIS : +44 113 250 9696 (x2489)



MetMap, La meteo Aeronautica in un colpo d'occhio ! - Copyright ORBIFLY Dicembre 2007 - Disclaimer

ORBIFLY MET'MAP TEAM :

Programmazione e sviluppo : Alexandra Zaïnal
Concezione e sviluppo : Baudouin d'Aumeries
Co-Programmazione e sviluppo : Marc-Olivier Méhu
Supporto tecnico e logistico : Manuel Goepfert
Aiuto per la traduzione : Arnaldo La Scala

Contatto : metmap@orbifly.com




FONTI E CREDITI :

   NOAA